Envie — FGD5943 — position and weather

sailwx.info

Track history (hours):
 
Tides and Currents Weather Stations Pressure Air Temp Water Temp Dewpoint Dewpoint Depression Visibility Wind Speed Wind Dir Waves Ship Positions

Envie

Last reported at 2017-Aug-17 05:38 UTC. Time now 2017-Sep-25 15:13 UTC.
Position N 48°13' W 004°30'.
Warning: this ship's position is 39 days out of date.

Length 9 m.

Type: Sailing vessel. MMSI: 227574730.

Date/timePositionNaut miles runAvg speedWind from/ knotsBaromVisibWave heightAir tempDewpointWater temp
2017-Aug-17 05:38N 48°13' W 004°30'0 0.0
2017-Aug-17 02:53N 48°13' W 004°30'0 0.0
2017-Aug-17 01:53N 48°13' W 004°30'0 0.0
2017-Aug-16 23:53N 48°13' W 004°30'0 0.0
2017-Aug-16 22:53N 48°13' W 004°30'0 0.0
2017-Aug-16 21:38N 48°13' W 004°30'0 0.0
2017-Aug-16 20:53N 48°13' W 004°30'0 0.0
2017-Aug-16 19:38N 48°13' W 004°30'0 0.0
2017-Aug-16 18:53N 48°13' W 004°30'0 0.0
2017-Aug-16 17:39N 48°13' W 004°30'0 0.0
2017-Aug-16 16:53N 48°13' W 004°30'0 0.0
2017-Aug-16 15:54N 48°13' W 004°30'0 0.1
2017-Aug-16 14:48N 48°14' W 004°30'5 2.7
2017-Aug-16 12:48N 48°13' W 004°38'1 4.2
2017-Aug-16 12:30N 48°14' W 004°39'  
2017-Aug-11 07:08N 48°18' W 004°39'1 3.8
2017-Aug-11 07:00N 48°18' W 004°38'2 1.5
2017-Aug-11 05:38N 48°17' W 004°35'0 0.0
2017-Aug-11 04:59N 48°17' W 004°35'0 0.0
2017-Aug-11 04:26N 48°17' W 004°35'0 0.0
2017-Aug-11 03:59N 48°17' W 004°35'0 0.0
2017-Aug-11 03:29N 48°17' W 004°35'0 0.0
2017-Aug-11 02:53N 48°17' W 004°35'0 0.0
2017-Aug-11 02:20N 48°17' W 004°35'0 0.0
2017-Aug-11 01:53N 48°17' W 004°35'0 0.0
2017-Aug-11 00:02N 48°17' W 004°35'0 0.0
2017-Aug-10 23:53N 48°17' W 004°35'0 0.0
2017-Aug-10 23:29N 48°17' W 004°35'0 0.0
2017-Aug-10 22:59N 48°17' W 004°35'0 0.0
2017-Aug-10 22:17N 48°17' W 004°35'0 0.0
2017-Aug-10 21:29N 48°17' W 004°35'0 0.0
2017-Aug-10 20:38N 48°17' W 004°35'0 0.0
2017-Aug-10 20:17N 48°17' W 004°35'0 0.0
2017-Aug-10 19:59N 48°17' W 004°35'0 0.0
2017-Aug-10 19:29N 48°17' W 004°35'0 0.0
2017-Aug-10 18:53N 48°17' W 004°35'0 0.0
2017-Aug-10 18:20N 48°17' W 004°35'0 0.0
2017-Aug-10 17:59N 48°17' W 004°35'0 0.0
2017-Aug-10 17:05N 48°17' W 004°35'0 0.0
2017-Aug-10 16:53N 48°17' W 004°35'0 0.0
2017-Aug-10 16:17N 48°17' W 004°35'0 0.0
2017-Aug-10 15:41N 48°17' W 004°35'0 0.0
2017-Aug-10 14:35N 48°17' W 004°35'0 0.0
2017-Aug-10 13:44N 48°17' W 004°35'0 0.0
2017-Aug-10 13:23N 48°17' W 004°35'0 0.0
2017-Aug-10 12:47N 48°17' W 004°35'0 0.0
2017-Aug-10 12:29N 48°17' W 004°35'0 0.0
2017-Aug-10 11:53N 48°17' W 004°35'0 0.1
2017-Aug-10 11:28N 48°17' W 004°35'0 0.0
2017-Aug-10 09:52N 48°17' W 004°35'0 0.0
2017-Aug-10 08:58N 48°17' W 004°35'0 0.0
2017-Aug-10 06:58N 48°17' W 004°35'0 0.0
2017-Aug-10 06:13N 48°17' W 004°35'0 0.0
2017-Aug-10 05:55N 48°17' W 004°35'0 0.0
2017-Aug-10 04:58N 48°17' W 004°35'0 0.0
2017-Aug-10 04:16N 48°17' W 004°35'0 0.0
2017-Aug-10 03:58N 48°17' W 004°35'0 0.0
2017-Aug-10 03:10N 48°17' W 004°35'0 0.0
2017-Aug-10 02:58N 48°17' W 004°35'0 0.0
2017-Aug-10 02:22N 48°17' W 004°35'0 0.0
2017-Aug-10 01:52N 48°17' W 004°35'0 0.0
2017-Aug-10 01:20N 48°17' W 004°35'0 0.0
2017-Aug-10 00:59N 48°17' W 004°35'0 0.0
2017-Aug-09 23:49N 48°17' W 004°35'0 0.0
2017-Aug-09 23:22N 48°17' W 004°35'0 0.0
2017-Aug-09 22:04N 48°17' W 004°35'0 0.0
2017-Aug-09 21:37N 48°17' W 004°35'0 0.0
2017-Aug-09 21:17N 48°17' W 004°35'0 0.0
2017-Aug-09 20:58N 48°17' W 004°35'0 0.0
2017-Aug-09 20:29N 48°17' W 004°35'0 0.0
2017-Aug-09 19:23N 48°17' W 004°35'0 0.0
2017-Aug-09 18:59N 48°17' W 004°35'0 0.0
2017-Aug-09 17:43N 48°17' W 004°35'  
2017-Aug-07 07:59N 47°42' W 003°24'2 5.0
2017-Aug-07 07:30N 47°43' W 003°22'1 1.2
2017-Aug-07 06:59N 47°44' W 003°21'0 0.0
2017-Aug-07 06:29N 47°44' W 003°21'0 0.0
2017-Aug-07 05:59N 47°44' W 003°21'  
Track history (hours):
 
Tides and Currents Weather Stations Pressure Air Temp Water Temp Dewpoint Dewpoint Depression Visibility Wind Speed Wind Dir Waves Ship Positions

Envie

Last reported at 2017-Aug-17 05:38 UTC. Time now 2017-Sep-25 15:13 UTC.
Position N 48°13' W 004°30'.
Warning: this ship's position is 39 days out of date.

Length 9 m.

Type: Sailing vessel. MMSI: 227574730.

Date/timePositionNaut miles runAvg speedWind from/ knotsBaromVisibWave heightAir tempDewpointWater temp
2017-Aug-17 05:38N 48°13' W 004°30'0 0.0
2017-Aug-17 02:53N 48°13' W 004°30'0 0.0
2017-Aug-17 01:53N 48°13' W 004°30'0 0.0
2017-Aug-16 23:53N 48°13' W 004°30'0 0.0
2017-Aug-16 22:53N 48°13' W 004°30'0 0.0
2017-Aug-16 21:38N 48°13' W 004°30'0 0.0
2017-Aug-16 20:53N 48°13' W 004°30'0 0.0
2017-Aug-16 19:38N 48°13' W 004°30'0 0.0
2017-Aug-16 18:53N 48°13' W 004°30'0 0.0
2017-Aug-16 17:39N 48°13' W 004°30'0 0.0
2017-Aug-16 16:53N 48°13' W 004°30'0 0.0
2017-Aug-16 15:54N 48°13' W 004°30'0 0.1
2017-Aug-16 14:48N 48°14' W 004°30'5 2.7
2017-Aug-16 12:48N 48°13' W 004°38'1 4.2
2017-Aug-16 12:30N 48°14' W 004°39'  
2017-Aug-11 07:08N 48°18' W 004°39'1 3.8
2017-Aug-11 07:00N 48°18' W 004°38'2 1.5
2017-Aug-11 05:38N 48°17' W 004°35'0 0.0
2017-Aug-11 04:59N 48°17' W 004°35'0 0.0
2017-Aug-11 04:26N 48°17' W 004°35'0 0.0
2017-Aug-11 03:59N 48°17' W 004°35'0 0.0
2017-Aug-11 03:29N 48°17' W 004°35'0 0.0
2017-Aug-11 02:53N 48°17' W 004°35'0 0.0
2017-Aug-11 02:20N 48°17' W 004°35'0 0.0
2017-Aug-11 01:53N 48°17' W 004°35'0 0.0
2017-Aug-11 00:02N 48°17' W 004°35'0 0.0
2017-Aug-10 23:53N 48°17' W 004°35'0 0.0
2017-Aug-10 23:29N 48°17' W 004°35'0 0.0
2017-Aug-10 22:59N 48°17' W 004°35'0 0.0
2017-Aug-10 22:17N 48°17' W 004°35'0 0.0
2017-Aug-10 21:29N 48°17' W 004°35'0 0.0
2017-Aug-10 20:38N 48°17' W 004°35'0 0.0
2017-Aug-10 20:17N 48°17' W 004°35'0 0.0
2017-Aug-10 19:59N 48°17' W 004°35'0 0.0
2017-Aug-10 19:29N 48°17' W 004°35'0 0.0
2017-Aug-10 18:53N 48°17' W 004°35'0 0.0
2017-Aug-10 18:20N 48°17' W 004°35'0 0.0
2017-Aug-10 17:59N 48°17' W 004°35'0 0.0
2017-Aug-10 17:05N 48°17' W 004°35'0 0.0
2017-Aug-10 16:53N 48°17' W 004°35'0 0.0
2017-Aug-10 16:17N 48°17' W 004°35'0 0.0
2017-Aug-10 15:41N 48°17' W 004°35'0 0.0
2017-Aug-10 14:35N 48°17' W 004°35'0 0.0
2017-Aug-10 13:44N 48°17' W 004°35'0 0.0
2017-Aug-10 13:23N 48°17' W 004°35'0 0.0
2017-Aug-10 12:47N 48°17' W 004°35'0 0.0
2017-Aug-10 12:29N 48°17' W 004°35'0 0.0
2017-Aug-10 11:53N 48°17' W 004°35'0 0.1
2017-Aug-10 11:28N 48°17' W 004°35'0 0.0
2017-Aug-10 09:52N 48°17' W 004°35'0 0.0
2017-Aug-10 08:58N 48°17' W 004°35'0 0.0
2017-Aug-10 06:58N 48°17' W 004°35'0 0.0
2017-Aug-10 06:13N 48°17' W 004°35'0 0.0
2017-Aug-10 05:55N 48°17' W 004°35'0 0.0
2017-Aug-10 04:58N 48°17' W 004°35'0 0.0
2017-Aug-10 04:16N 48°17' W 004°35'0 0.0
2017-Aug-10 03:58N 48°17' W 004°35'0 0.0
2017-Aug-10 03:10N 48°17' W 004°35'0 0.0
2017-Aug-10 02:58N 48°17' W 004°35'0 0.0
2017-Aug-10 02:22N 48°17' W 004°35'0 0.0
2017-Aug-10 01:52N 48°17' W 004°35'0 0.0
2017-Aug-10 01:20N 48°17' W 004°35'0 0.0
2017-Aug-10 00:59N 48°17' W 004°35'0 0.0
2017-Aug-09 23:49N 48°17' W 004°35'0 0.0
2017-Aug-09 23:22N 48°17' W 004°35'0 0.0
2017-Aug-09 22:04N 48°17' W 004°35'0 0.0
2017-Aug-09 21:37N 48°17' W 004°35'0 0.0
2017-Aug-09 21:17N 48°17' W 004°35'0 0.0
2017-Aug-09 20:58N 48°17' W 004°35'0 0.0
2017-Aug-09 20:29N 48°17' W 004°35'0 0.0
2017-Aug-09 19:23N 48°17' W 004°35'0 0.0
2017-Aug-09 18:59N 48°17' W 004°35'0 0.0
2017-Aug-09 17:43N 48°17' W 004°35'  
2017-Aug-07 07:59N 47°42' W 003°24'2 5.0
2017-Aug-07 07:30N 47°43' W 003°22'1 1.2
2017-Aug-07 06:59N 47°44' W 003°21'0 0.0
2017-Aug-07 06:29N 47°44' W 003°21'0 0.0
2017-Aug-07 05:59N 47°44' W 003°21'  

Dump ship's entire track history